Tiempo atmosférico en la estación meteorológica de Puerto de Pajares, Asturias (1480 m.)



Fecha
DESCASC
Temp. máxima en grados centígrados (hora)
DESCASC
Temp. mínima en grados centígrados (hora)
DESCASC
Temp. media en grados centígrados
DESCASC
Racha de viento máxima en m/sg (hora)
DESCASC
Velocidad máxima media en intervalos de 10 minutos(hora)
DESCASC
Precipitaciones diarias en mm
DESCASC
Precipitaciones de 00:00 a 06:00 en mm
DESCASC
Precipitaciones de 06:00 a 12:00 en mm
DESCASC
Precipitaciones de 12:00 a 18:00 en mm
DESCASC
Precipitaciones de 18:00 a 24:00 en mm
DESCASC

Gráficas

Temp. máximas Temp. mínimas Temp. medias Precipitaciones Rachas de viento máximas Velocidades máximas media en intervalos de 10 minutos

Datos horarios

Fecha y hora oficial Temperatura (ºC) Velocidad del viento (km/h) Dirección del viento Racha (km/h) Dirección de racha Precipitación (mm) Presión (hPa) Tendencia (hPa) Humedad (%)
2020-04-08 23:00:00 8.7 13 Sur 17 Sur 0 -- -- 69
2020-04-08 22:00:00 8.5 10 Sur 14 Sur 0 -- -- 73
2020-04-08 21:00:00 7.8 6 Sudoeste 10 Sudoeste 0 -- -- 73
2020-04-08 20:00:00 10.6 2 Noroeste 14 Sur 0 -- -- 65
2020-04-08 19:00:00 11.7 8 Sur 20 Sur 0 -- -- 51
2020-04-08 18:00:00 12.2 10 Sur 24 Sur 0 -- -- 55
2020-04-08 17:00:00 11.5 15 Sur 21 Sur 0 -- -- 54
2020-04-08 16:00:00 12.2 12 Sur 22 Sur 0 -- -- 51
2020-04-08 15:00:00 12.6 11 Sur 21 Sudoeste 0 -- -- 51
2020-04-08 14:00:00 11.7 14 Sur 24 Sudoeste 0 -- -- 56
2020-04-08 13:00:00 10.9 12 Sur 25 Sur 0 -- -- 67
2020-04-08 12:00:00 9.6 10 Sudeste 23 Sudeste 0 -- -- 68
2020-04-08 11:00:00 10.1 11 Sur 21 Sur 0 -- -- 69
2020-04-08 10:00:00 9.1 12 Sur 18 Sur 0 -- -- 73
2020-04-08 09:00:00 7.1 16 Sur 22 Sur 0 -- -- 81
2020-04-08 08:00:00 6.1 16 Sur 22 Sur 0 -- -- 80
2020-04-08 07:00:00 6.2 16 Sur 27 Sur 0 -- -- 79
2020-04-08 06:00:00 6.7 16 Sur 27 Sur 0 -- -- 77
2020-04-08 05:00:00 6.9 16 Sur 24 Sur 0 -- -- 74
2020-04-08 04:00:00 6.9 18 Sur 26 Sur 0 -- -- 75
2020-04-08 03:00:00 6.9 18 Sur 27 Sur 0 -- -- 75
2020-04-08 02:00:00 7.1 15 Sur 22 Sur 0 -- -- 75
2020-04-08 01:00:00 7.4 17 Sur 21 Sur 0 -- -- 78
2020-04-08 00:00:00 7.7 9 Sur 12 Sur 0 -- -- 78
2020-04-07 23:00:00 7 6 Sudoeste 12 Sudoeste 0.1 -- -- 82
2020-04-07 22:00:00 6.9 7 Oeste 12 Oeste 1.8 -- -- 82
2020-04-07 21:00:00 6.9 6 Sudoeste 16 Nordeste 0 -- -- 84
2020-04-07 20:00:00 7.7 10 Noroeste 21 Noroeste 0 -- -- 84
2020-04-07 19:00:00 9.4 8 Sur 22 Sur 0.2 -- -- 71
2020-04-07 18:00:00 9.4 11 Sur 23 Sur 0 -- -- 69
2020-04-07 17:00:00 9.3 16 Sur 31 Sur 0 -- -- 73
2020-04-07 16:00:00 8.8 13 Sur 22 Sur 0.2 -- -- 76
2020-04-07 15:00:00 8.4 12 Sur 24 Sur 0.1 -- -- 77
2020-04-07 14:00:00 7.8 12 Sur 28 Sur 0.1 -- -- 80
2020-04-07 13:00:00 7.9 9 Sudeste 26 Sudeste 0 -- -- 80
2020-04-07 12:00:00 7.1 7 Sur 26 Sudeste 0 -- -- 81
2020-04-07 11:00:00 6.7 11 Sudeste 28 Sudeste 0 -- -- 85
2020-04-07 10:00:00 5.8 15 Sudeste 28 Sur 0 -- -- 88
2020-04-07 09:00:00 5.3 17 Sur 29 Sur 0 -- -- 88
2020-04-07 08:00:00 5 17 Sur 31 Sur 0.1 -- -- 87
2020-04-07 07:00:00 5 11 Sudeste 30 Sur 0 -- -- 88
2020-04-07 06:00:00 4.7 21 Sur 41 Sur 0 -- -- 88
2020-04-07 05:00:00 4.7 15 Sur 33 Sur 0 -- -- 87
2020-04-07 04:00:00 4.9 23 Sur 37 Sur 0 -- -- 85
2020-04-07 03:00:00 5.1 19 Sur 35 Sur 0.1 -- -- 86
2020-04-07 02:00:00 5 17 Sur 33 Sur 0 -- -- 84
2020-04-07 01:00:00 5.3 11 Sur 24 Sur 0 -- -- 88
2020-04-07 00:00:00 5.2 8 Sudeste 25 Sudeste 0 -- -- 90
2020-04-06 23:00:00 5.3 9 Sur 15 Sur 0 -- -- 90
2020-04-06 22:00:00 4.8 0 Calma 3 Este 0.3 -- -- 90
2020-04-06 21:00:00 4.8 0 Calma 5 Noroeste 0.2 -- -- 90
2020-04-06 20:00:00 4.9 2 Noroeste 5 Norte 0.1 -- -- 90
2020-04-06 19:00:00 4.9 2 Noroeste 6 Noroeste 0.3 -- -- 90
2020-04-06 18:00:00 5 4 Noroeste 9 Noroeste 0.2 -- -- 90
2020-04-06 17:00:00 5 4 Noroeste 9 Norte 0.4 -- -- 90
2020-04-06 16:00:00 5.4 3 Noroeste 8 Norte 0.4 -- -- 90
2020-04-06 15:00:00 5 3 Noroeste 8 Noroeste 0 -- -- 90
2020-04-06 14:00:00 5 5 Noroeste 10 Noroeste 0 -- -- 90
2020-04-06 13:00:00 4.8 5 Noroeste 10 Noroeste 0 -- -- 90
2020-04-06 12:00:00 4.8 5 Noroeste 14 Noroeste 0.1 -- -- 90
2020-04-06 11:00:00 3.9 8 Noroeste 15 Noroeste 1.9 -- -- 90
2020-04-06 10:00:00 3.9 6 Noroeste 13 Noroeste 2.2 -- -- 90
2020-04-06 09:00:00 4 5 Noroeste 8 Noroeste 1.2 -- -- 90
2020-04-06 08:00:00 4.6 0 Calma 5 Noroeste 0.5 -- -- 89
2020-04-06 07:00:00 5.1 0 Calma 6 Noroeste 0.4 -- -- 89
2020-04-06 06:00:00 6.4 4 Este 14 Sudeste 0.5 -- -- 88
2020-04-06 05:00:00 6.5 5 Sudeste 21 Sudeste 0 -- -- 88
2020-04-06 04:00:00 6.5 7 Sudeste 23 Sudeste 0.5 -- -- 88
2020-04-06 03:00:00 6.3 10 Sudeste 28 Sudeste 0.1 -- -- 87
2020-04-06 02:00:00 6.4 12 Sudeste 29 Sur 0.5 -- -- 87
2020-04-06 01:00:00 6.2 12 Sur 37 Sur 0.2 -- -- 87
2020-04-06 00:00:00 5.9 21 Sur 35 Sur 0.1 -- -- 86
2020-04-05 23:00:00 6 22 Sur 40 Sur 0 -- -- 82
2020-04-05 22:00:00 6.1 18 Sur 36 Sur 0 -- -- 82
2020-04-05 21:00:00 6.3 13 Sudeste 48 Sur 0 -- -- 79
2020-04-05 20:00:00 7 26 Sur 67 Sur 0.5 -- -- 79
2020-04-05 19:00:00 7 28 Sur 53 Sur 3 -- -- 81
2020-04-05 18:00:00 7 22 Sur 41 Sur 5.4 -- -- 82
2020-04-05 17:00:00 6.6 30 Sur 62 Sur 1.9 -- -- 85
2020-04-05 16:00:00 6.6 22 Sur 59 Sur 0.8 -- -- 86
2020-04-05 15:00:00 6.2 21 Sudeste 54 Sur 1 -- -- 85
2020-04-05 14:00:00 5.9 32 Sur 67 Sur 0.2 -- -- 87
2020-04-05 13:00:00 5.3 39 Sur 62 Sur 0.1 -- -- 90
2020-04-05 12:00:00 4.8 27 Sur 66 Sur 0.1 -- -- 90
2020-04-05 11:00:00 4.8 38 Sur 65 Sur 0.2 -- -- 86
2020-04-05 10:00:00 4.6 24 Sur 69 Sur 0.1 -- -- 87
2020-04-05 09:00:00 4.8 39 Sur 68 Sur 0 -- -- 85
2020-04-05 08:00:00 4.7 30 Sur 65 Sur 0 -- -- 84
2020-04-05 07:00:00 4.9 35 Sur 55 Sur 0 -- -- 82
2020-04-05 06:00:00 4.9 31 Sur 68 Sur 0 -- -- 78
2020-04-05 05:00:00 5.5 33 Sur 70 Sur 0 -- -- 66
2020-04-05 04:00:00 5.7 32 Sur 63 Sur 0 -- -- 66
2020-04-05 03:00:00 5.8 33 Sur 64 Sur 0 -- -- 64
2020-04-05 02:00:00 6.4 41 Sur 72 Sur 0 -- -- 53
2020-04-05 01:00:00 6.8 30 Sur 62 Sudeste 0 -- -- 50
2020-04-05 00:00:00 6.9 28 Sur 66 Sur 0 -- -- 52
2020-04-04 23:00:00 7.3 24 Sur 55 Sur 0 -- -- 50
2020-04-04 22:00:00 8.1 24 Sur 59 Sur 0 -- -- 44
2020-04-04 21:00:00 8.3 21 Sur 52 Sur 0 -- -- 44
2020-04-04 20:00:00 8.6 23 Sur 57 Sur 0 -- -- 42
2020-04-04 19:00:00 9.1 28 Sur 57 Sur 0 -- -- 42
2020-04-04 18:00:00 9.1 22 Sur 47 Sur 0 -- -- 44
2020-04-04 17:00:00 9.3 24 Sur 54 Sur 0 -- -- 40
2020-04-04 16:00:00 9.5 26 Sur 54 Sur 0 -- -- 38
2020-04-04 15:00:00 9 27 Sur 63 Sur 0 -- -- 37
2020-04-04 14:00:00 8.8 23 Sur 54 Sur 0 -- -- 43
2020-04-04 13:00:00 7.8 31 Sur 49 Sur 0 -- -- 46
2020-04-04 12:00:00 7.3 28 Sur 45 Sur 0 -- -- 52
2020-04-04 11:00:00 5.6 17 Sur 46 Sur 0 -- -- 62
2020-04-04 10:00:00 3.5 25 Sur 45 Sur 0 -- -- 65
2020-04-04 09:00:00 1.9 31 Sur 51 Sur 0 -- -- 67
2020-04-04 08:00:00 1.9 26 Sur 44 Sur 0 -- -- 61
2020-04-04 07:00:00 2.3 27 Sur 44 Sur 0 -- -- 63
2020-04-04 06:00:00 2.7 24 Sur 36 Sur 0 -- -- 58
2020-04-04 05:00:00 2.9 17 Sur 27 Sur 0 -- -- 55
2020-04-04 04:00:00 3.1 15 Sur 26 Sur 0 -- -- 56
2020-04-04 03:00:00 3.3 17 Sur 26 Sur 0 -- -- 59
2020-04-04 02:00:00 3.4 14 Sur 27 Sur 0 -- -- 62
2020-04-04 01:00:00 3.6 16 Sur 22 Sur 0 -- -- 62
2020-04-04 00:00:00 3.9 17 Sur 27 Sur 0 -- -- 61
2020-04-03 23:00:00 4.1 21 Sur 27 Sur 0 -- -- 58
2020-04-03 22:00:00 4.8 20 Sur 26 Sur 0 -- -- 56
2020-04-03 21:00:00 5.9 14 Sur 20 Sur 0 -- -- 53
2020-04-03 20:00:00 7.5 9 Sur 16 Sur 0 -- -- 51
2020-04-03 19:00:00 8.7 3 Norte 15 Noroeste 0 -- -- 61
2020-04-03 18:00:00 8.2 7 Oeste 19 Sudoeste 0 -- -- 55
2020-04-03 17:00:00 10.4 4 Sur 23 Este 0 -- -- 47
2020-04-03 16:00:00 9.9 5 Norte 14 Noroeste 0 -- -- 51
2020-04-03 15:00:00 9.3 3 Norte 12 Noroeste 0 -- -- 48
2020-04-03 14:00:00 7.6 6 Noroeste 12 Noroeste 0 -- -- 51
2020-04-03 13:00:00 7.3 6 Noroeste 12 Noroeste 0 -- -- 60
2020-04-03 12:00:00 6.9 6 Norte 11 Norte 0 -- -- 63
2020-04-03 11:00:00 6 3 Este 6 Este 0 -- -- 79
2020-04-03 10:00:00 3.6 0 Calma 6 Sudoeste 0 -- -- 85
2020-04-03 09:00:00 0.9 6 Sudoeste 13 Sur 0 -- -- 88
2020-04-03 08:00:00 0.4 10 Sudoeste 17 Sur 0 -- -- 90
2020-04-03 07:00:00 0.4 10 Sur 17 Sur 0 -- -- 91
2020-04-03 06:00:00 -0.4 6 Sur 14 Sur 0 -- -- 91
2020-04-03 05:00:00 0 8 Sur 18 Sur 0 -- -- 91
2020-04-03 04:00:00 -0.3 4 Sudeste 6 Sudeste 0 -- -- 91
2020-04-03 03:00:00 -0.4 3 Sudeste 6 Sudeste 0 -- -- 91
2020-04-03 02:00:00 -0.4 3 Sudeste 12 Norte 0 -- -- 91
2020-04-03 01:00:00 0 4 Noroeste 16 Noroeste 0 -- -- 91
2020-04-03 00:00:00 0.4 6 Noroeste 17 Noroeste 0 -- -- 91
2020-04-02 23:00:00 0.5 10 Noroeste 22 Noroeste 0 -- -- 91
2020-04-02 22:00:00 0.6 10 Noroeste 26 Noroeste 0 -- -- 91
2020-04-02 21:00:00 1.1 12 Noroeste 28 Noroeste 0 -- -- 91
2020-04-02 20:00:00 1.7 11 Noroeste 27 Noroeste 0 -- -- 91
2020-04-02 19:00:00 2 12 Noroeste 28 Noroeste 0 -- -- 91
2020-04-02 18:00:00 2.3 7 Norte 23 Noroeste 0 -- -- 91
2020-04-02 17:00:00 2.3 9 Noroeste 25 Noroeste 0 -- -- 91
2020-04-02 16:00:00 2.1 12 Noroeste 33 Noroeste 0 -- -- 91
2020-04-02 15:00:00 2.5 11 Noroeste 32 Noroeste 0 -- -- 91
2020-04-02 14:00:00 2.1 12 Noroeste 32 Noroeste 0 -- -- 91
2020-04-02 13:00:00 2.4 14 Noroeste 31 Noroeste 0.1 -- -- 91
2020-04-02 12:00:00 2.3 14 Noroeste 36 Noroeste 0 -- -- 91
2020-04-02 11:00:00 2.3 17 Noroeste 39 Noroeste 0.9 -- -- 91
2020-04-02 10:00:00 2.5 15 Noroeste 33 Noroeste 2.2 -- -- 91
2020-04-02 09:00:00 2.5 11 Noroeste 29 Noroeste 0 -- -- 91
2020-04-02 08:00:00 2.3 9 Noroeste 28 Noroeste 0 -- -- 91
2020-04-02 07:00:00 2.5 7 Noroeste 22 Noroeste 0.8 -- -- 91
2020-04-02 06:00:00 2.6 6 Noroeste 15 Noroeste 2.4 -- -- 91
2020-04-02 05:00:00 2.5 5 Noroeste 15 Noroeste 1.4 -- -- 91
2020-04-02 04:00:00 2.4 6 Noroeste 15 Noroeste 2.3 -- -- 91
2020-04-02 03:00:00 2.4 9 Noroeste 16 Noroeste 0.6 -- -- 91
2020-04-02 02:00:00 2.5 6 Noroeste 13 Noroeste 0.7 -- -- 91
2020-04-02 01:00:00 2.4 6 Noroeste 15 Noroeste 0.5 -- -- 91
2020-04-02 00:00:00 2.3 10 Noroeste 18 Noroeste 0.2 -- -- 91
2020-04-01 23:00:00 2.5 11 Noroeste 28 Noroeste 0 -- -- 91
2020-04-01 22:00:00 2.6 6 Noroeste 19 Noroeste 0.5 -- -- 90
2020-04-01 21:00:00 2.9 9 Noroeste 19 Noroeste 0.4 -- -- 90
2020-04-01 20:00:00 2.9 8 Noroeste 21 Noroeste 0 -- -- 90
2020-04-01 19:00:00 3.3 4 Noroeste 12 Noroeste 0 -- -- 89
2020-04-01 18:00:00 3.1 8 Noroeste 15 Noroeste 0.4 -- -- 88
2020-04-01 17:00:00 3.6 7 Noroeste 17 Noroeste 0 -- -- 84
2020-04-01 16:00:00 4.7 5 Noroeste 15 Oeste 0 -- -- 74
2020-04-01 15:00:00 5.6 2 Sudeste 12 Este 0 -- -- 70
2020-04-01 14:00:00 4.6 8 Sudeste 18 Este 0 -- -- 75
2020-04-01 13:00:00 3.8 7 Sur 20 Sur 0.7 -- -- 83
2020-04-01 12:00:00 3 11 Sur 24 Sudeste 0 -- -- 83
2020-04-01 11:00:00 2.8 8 Sudeste 22 Sur 0 -- -- 86
2020-04-01 10:00:00 2.2 7 Sudeste 18 Sur 0 -- -- 89
2020-04-01 09:00:00 1.9 9 Sur 30 Sur 0 -- -- 89
2020-04-01 08:00:00 1.9 17 Sur 34 Sur 0.2 -- -- 89
2020-04-01 07:00:00 1.7 11 Sur 31 Sudeste 0.3 -- -- 90
2020-04-01 06:00:00 1.3 11 Sudeste 26 Sur 0.7 -- -- 90
2020-04-01 05:00:00 1.1 12 Sur 33 Este 1.3 -- -- 90
2020-04-01 04:00:00 1.3 19 Sudeste 48 Sudeste 2.1 -- -- 89
2020-04-01 03:00:00 1.7 20 Sudeste 37 Sudeste 2.5 -- -- 90
2020-04-01 02:00:00 2.2 19 Sudeste 36 Sur 0.4 -- -- 91
2020-04-01 01:00:00 2.3 17 Sudeste 38 Sudeste 0.5 -- -- 91
2020-04-01 00:00:00 2.3 17 Sudeste 43 Sur 0.1 -- -- 91
2020-03-31 23:00:00 1.9 15 Sudeste 36 Sur 0.6 -- -- 91
2020-03-31 22:00:00 1.4 14 Sudeste 39 Sudeste 0.8 -- -- 91
2020-03-31 21:00:00 1.1 15 Sudeste 30 Sur 1 -- -- 91
2020-03-31 20:00:00 0 4 Sur 8 Sudeste 1.1 -- -- 91
2020-03-31 19:00:00 -0.7 0 Calma 4 Sur 1.5 -- -- 91
2020-03-31 18:00:00 -0.7 0 Calma 3 Oeste 0.5 -- -- 91
2020-03-31 17:00:00 -1 0 Calma 4 Oeste 0.1 -- -- 91
2020-03-31 16:00:00 -1 0 Calma 2 Noroeste 0 -- -- 91
2020-03-31 15:00:00 -1.4 0 Calma 3 Oeste 0 -- -- 90
2020-03-31 14:00:00 -0.9 0 Calma 3 Noroeste 0 -- -- 90
2020-03-31 13:00:00 -1.6 0 Calma 0 Calma 0 -- -- 90
2020-03-31 12:00:00 -1.9 0 Calma 0 Calma 0.1 -- -- 90
2020-03-31 11:00:00 -3.2 0 Calma 0 Calma 0.2 -- -- 89
2020-03-31 10:00:00 -4.3 0 Calma 0 Calma 0 -- -- 88
2020-03-31 09:00:00 -5.1 0 Calma 2 Noroeste 0 -- -- 88
2020-03-31 08:00:00 -5.3 0 Calma 2 Oeste 0 -- -- 88
2020-03-31 07:00:00 -5.3 0 Calma 3 Sudoeste 0 -- -- 88
2020-03-31 06:00:00 -5.4 0 Calma 4 Oeste 0 -- -- 88
2020-03-31 05:00:00 -5.3 3 Oeste 5 Noroeste 0 -- -- 88
2020-03-31 04:00:00 -5.1 3 Noroeste 6 Noroeste 0 -- -- 88
2020-03-31 03:00:00 -4.9 3 Noroeste 6 Noroeste 0 -- -- 88
2020-03-31 02:00:00 -4.7 3 Noroeste 6 Oeste 0 -- -- 88
2020-03-31 01:00:00 -4.9 4 Noroeste 7 Oeste 0.2 -- -- 88
2020-03-31 00:00:00 -4.7 4 Noroeste 10 Noroeste 0 -- -- 88
2020-03-30 23:00:00 -5 6 Noroeste 10 Noroeste 0 -- -- 88
2020-03-30 22:00:00 -5.3 3 Noroeste 9 Noroeste 0 -- -- 88
2020-03-30 21:00:00 -5.4 4 Noroeste 8 Oeste 0 -- -- 88
2020-03-30 20:00:00 -5.2 3 Oeste 10 Noroeste 0 -- -- 89
2020-03-30 19:00:00 -4.8 6 Noroeste 14 Noroeste 0.1 -- -- 89
2020-03-30 18:00:00 -4.8 8 Noroeste 17 Noroeste 0.1 -- -- 89
2020-03-30 17:00:00 -4.5 5 Noroeste 17 Noroeste 0.2 -- -- 89
2020-03-30 16:00:00 -4.7 7 Noroeste 18 Noroeste 0.1 -- -- 89
2020-03-30 15:00:00 -4.7 10 Noroeste 23 Noroeste 0.3 -- -- 89
2020-03-30 14:00:00 -4.5 9 Noroeste 19 Noroeste 0 -- -- 89
2020-03-30 13:00:00 -4.8 8 Noroeste 30 Oeste 0.4 -- -- 89
2020-03-30 12:00:00 -4.7 10 Noroeste 21 Noroeste 0.1 -- -- 89
2020-03-30 11:00:00 -4.5 8 Noroeste 28 Noroeste 0.9 -- -- 90
2020-03-30 10:00:00 -4.2 12 Noroeste 22 Noroeste 0 -- -- 90
2020-03-30 09:00:00 -4.2 10 Noroeste 23 Noroeste 0.1 -- -- 90
2020-03-30 08:00:00 -4.1 10 Noroeste 25 Oeste 0 -- -- 90
2020-03-30 07:00:00 -3.9 10 Noroeste 18 Noroeste 0 -- -- 90
2020-03-30 06:00:00 -3.9 8 Noroeste 24 Noroeste 0 -- -- 90
2020-03-30 05:00:00 -3.3 15 Noroeste 32 Noroeste 0 -- -- 91
2020-03-30 04:00:00 -2.9 16 Noroeste 41 Noroeste 0.4 -- -- 91
2020-03-30 03:00:00 -2.2 18 Noroeste 33 Noroeste 0.1 -- -- 92
2020-03-30 02:00:00 -1.7 15 Noroeste 34 Oeste 0.2 -- -- 92
2020-03-30 01:00:00 -1 14 Noroeste 36 Noroeste 0.2 -- -- 92
2020-03-30 00:00:00 -0.4 15 Noroeste 36 Noroeste 0.3 -- -- 92
2020-03-29 23:00:00 0 13 Noroeste 32 Noroeste 0.1 -- -- 92
2020-03-29 22:00:00 0.5 17 Noroeste 32 Noroeste 0 -- -- 92
2020-03-29 21:00:00 0.8 10 Noroeste 23 Noroeste 0 -- -- 92
2020-03-29 20:00:00 0.7 10 Noroeste 28 Noroeste 0 -- -- 91
2020-03-29 19:00:00 1.3 14 Noroeste 25 Noroeste 0 -- -- 91
2020-03-29 18:00:00 1.7 10 Noroeste 24 Noroeste 0 -- -- 87
2020-03-29 17:00:00 2.2 8 Noroeste 21 Noroeste 0 -- -- 84
2020-03-29 16:00:00 2.5 9 Noroeste 17 Noroeste 0 -- -- 85
2020-03-29 15:00:00 2.6 6 Noroeste 12 Noroeste 0 -- -- 89
2020-03-29 14:00:00 1.8 6 Noroeste 13 Noroeste 0 -- -- 89
2020-03-29 13:00:00 1.9 3 Noroeste 10 Noroeste 0 -- -- 86
2020-03-29 12:00:00 1.5 4 Noroeste 9 Noroeste 0 -- -- 85
2020-03-29 11:00:00 2.2 4 Noroeste 8 Noroeste 0 -- -- 76
2020-03-29 10:00:00 4.8 2 Nordeste 8 Sudoeste 0 -- -- 56
2020-03-29 09:00:00 1.9 5 Sur 10 Sudoeste 0 -- -- 57
2020-03-29 08:00:00 2.4 11 Sudoeste 14 Sudoeste 0 -- -- 53
2020-03-29 07:00:00 1.8 6 Sur 13 Sudoeste 0 -- -- 55
2020-03-29 06:00:00 2.7 5 Sur 12 Sudoeste 0 -- -- 51
2020-03-29 05:00:00 3.3 10 Sudoeste 13 Sudoeste 0 -- -- 52
2020-03-29 03:00:00 1.5 8 Sudoeste 10 Sudoeste 0 -- -- 71
2020-03-29 01:00:00 1.3 4 Sudoeste 9 Sur 0 -- -- 75
2020-03-29 00:00:00 1.5 8 Sudoeste 10 Sudoeste 0 -- -- 79
2020-03-28 23:00:00 1.6 6 Sudoeste 11 Sur 0 -- -- 84
2020-03-28 22:00:00 3.5 3 Oeste 6 Oeste 0 -- -- 85
2020-03-28 21:00:00 3.7 0 Calma 4 Noroeste 0 -- -- 85
2020-03-28 20:00:00 3.9 3 Noroeste 8 Noroeste 0 -- -- 84
2020-03-28 19:00:00 4.6 5 Noroeste 18 Noroeste 0 -- -- 79
2020-03-28 18:00:00 5.6 9 Noroeste 22 Noroeste 0 -- -- 69
2020-03-28 17:00:00 7.2 10 Noroeste 20 Noroeste 0 -- -- 54
2020-03-28 16:00:00 8 9 Noroeste 22 Noroeste 0 -- -- 45
2020-03-28 15:00:00 9 9 Noroeste 26 Noroeste 0 -- -- 42
2020-03-28 14:00:00 8.2 9 Noroeste 19 Noroeste 0 -- -- 39
2020-03-28 13:00:00 8.3 8 Noroeste 15 Noroeste 0 -- -- 37
2020-03-28 12:00:00 7.6 6 Noroeste 13 Noroeste 0 -- -- 35
2020-03-28 11:00:00 6.6 5 Noroeste 10 Noroeste 0 -- -- 35
2020-03-28 10:00:00 6 4 Noroeste 8 Noroeste 0 -- -- 36
2020-03-28 09:00:00 5.6 2 Norte 7 Sur 0 -- -- 41
2020-03-28 08:00:00 1 8 Sur 15 Sudoeste 0 -- -- 49
2020-03-28 07:00:00 0.5 12 Sudoeste 15 Sudoeste 0 -- -- 49
2020-03-28 06:00:00 -0.1 10 Sudoeste 16 Sur 0 -- -- 52
2020-03-28 05:00:00 0.5 11 Sur 18 Sur 0 -- -- 54
2020-03-28 04:00:00 1 15 Sur 23 Sur 0 -- -- 54
2020-03-28 03:00:00 1.5 19 Sur 23 Sur 0 -- -- 52
2020-03-28 02:00:00 1.3 17 Sur 20 Sur 0 -- -- 51
2020-03-28 01:00:00 1.9 11 Sur 16 Sur 0 -- -- 48
2020-03-28 00:00:00 1.7 8 Sur 18 Sur 0 -- -- 47
2020-03-27 23:00:00 2.3 12 Sur 15 Sur 0 -- -- 46
2020-03-27 22:00:00 1.2 5 Sur 14 Sur 0 -- -- 49
2020-03-27 21:00:00 1.6 5 Sudoeste 17 Sur 0 -- -- 52
2020-03-27 20:00:00 0.4 3 Sur 8 Sur 0 -- -- 73
2020-03-27 19:00:00 2.7 0 Calma 10 Noroeste 0 -- -- 63
2020-03-27 18:00:00 4.7 4 Noroeste 21 Norte 0 -- -- 52
2020-03-27 17:00:00 7 7 Sur 25 Sudoeste 0 -- -- 26
2020-03-27 16:00:00 6.2 13 Sudeste 39 Sudeste 0 -- -- 25
2020-03-27 15:00:00 6.6 12 Sudeste 31 Sudeste 0 -- -- 25
2020-03-27 14:00:00 5.7 14 Sudeste 35 Sur 0 -- -- 25
2020-03-27 13:00:00 4.4 16 Sudeste 38 Sudeste 0 -- -- 29
2020-03-27 12:00:00 3.1 14 Sudeste 45 Sudeste 0 -- -- 31
2020-03-27 11:00:00 2 14 Sur 28 Sudeste 0 -- -- 43
2020-03-27 10:00:00 0 13 Sur 26 Sur 0 -- -- 48
2020-03-27 09:00:00 -1.7 10 Sur 15 Sur 0 -- -- 60
2020-03-27 08:00:00 -3.8 11 Sur 21 Sudeste 0 -- -- 67
2020-03-27 07:00:00 -3.8 14 Sur 22 Sur 0 -- -- 68
2020-03-27 06:00:00 -5.2 6 Sudoeste 9 Sudoeste 0 -- -- 81
2020-03-27 05:00:00 -5 8 Sudoeste 10 Sudoeste 0 -- -- 87
2020-03-27 04:00:00 -4.8 2 Oeste 10 Sudoeste 0 -- -- 90
2020-03-27 03:00:00 -3.1 2 Este 14 Nordeste 0 -- -- 91
2020-03-27 02:00:00 -2.5 7 Noroeste 23 Noroeste 0 -- -- 91
2020-03-27 01:00:00 -2.1 13 Noroeste 26 Noroeste 0 -- -- 91
2020-03-27 00:00:00 -1.7 7 Norte 30 Noroeste 0 -- -- 91
2020-03-26 23:00:00 -1.7 11 Noroeste 25 Noroeste 0 -- -- 90
2020-03-26 22:00:00 -1.8 11 Noroeste 26 Noroeste 0 -- -- 88
2020-03-26 21:00:00 -1.5 13 Noroeste 38 Noroeste 0 -- -- 86
2020-03-26 20:00:00 -0.9 15 Noroeste 35 Oeste 0 -- -- 86
2020-03-26 19:00:00 -0.2 18 Noroeste 37 Oeste 0 -- -- 81
2020-03-26 18:00:00 0.6 15 Noroeste 35 Noroeste 0 -- -- 73
2020-03-26 17:00:00 1.7 17 Noroeste 35 Noroeste 0 -- -- 65
2020-03-26 16:00:00 2.6 15 Noroeste 35 Noroeste 0 -- -- 60
2020-03-26 15:00:00 3.3 13 Noroeste 34 Noroeste 0 -- -- 59
2020-03-26 14:00:00 3 13 Noroeste 27 Noroeste 0 -- -- 62
2020-03-26 13:00:00 2.3 13 Noroeste 27 Noroeste 0 -- -- 65
2020-03-26 12:00:00 0.8 13 Noroeste 20 Noroeste 0 -- -- 73
2020-03-26 11:00:00 0.6 6 Noroeste 11 Noroeste 0 -- -- 60
2020-03-26 10:00:00 1.1 6 Noroeste 12 Noroeste 0 -- -- 27
2020-03-26 09:00:00 1.6 6 Noroeste 12 Noroeste 0 -- -- 19
2020-03-26 08:00:00 -0.3 6 Noroeste 13 Norte 0 -- -- 18
2020-03-26 07:00:00 -0.4 5 Norte 18 Noroeste 0 -- -- 18
2020-03-26 06:00:00 0.8 10 Noroeste 25 Noroeste 0 -- -- 15
2020-03-26 05:00:00 1.3 14 Noroeste 28 Noroeste 0 -- -- 18
2020-03-26 04:00:00 0 9 Noroeste 24 Noroeste 0 -- -- 42
2020-03-26 03:00:00 -0.8 7 Noroeste 15 Norte 0 -- -- 80
2020-03-26 02:00:00 0 7 Noroeste 19 Oeste 0 -- -- 72
2020-03-26 01:00:00 0.1 5 Norte 16 Noroeste 0 -- -- 84
2020-03-26 00:00:00 0.9 12 Noroeste 23 Noroeste 0 -- -- 90
2020-03-25 23:00:00 1.4 10 Noroeste 25 Oeste 0 -- -- 89
2020-03-25 22:00:00 2 9 Noroeste 22 Noroeste 0 -- -- 90
2020-03-25 21:00:00 2.7 10 Noroeste 23 Noroeste 0 -- -- 89
2020-03-25 20:00:00 3.5 11 Norte 23 Noroeste 0 -- -- 81
2020-03-25 19:00:00 4.7 14 Noroeste 32 Noroeste 0 -- -- 61
2020-03-25 18:00:00 6.6 17 Noroeste 34 Noroeste 0 -- -- 49
2020-03-25 17:00:00 7.8 19 Noroeste 39 Noroeste 0 -- -- 39
2020-03-25 16:00:00 8.6 16 Noroeste 37 Noroeste 0 -- -- 30
2020-03-25 15:00:00 9 12 Noroeste 35 Noroeste 0 -- -- 28
2020-03-25 14:00:00 9.1 13 Noroeste 33 Noroeste 0 -- -- 31
2020-03-25 13:00:00 8.8 10 Noroeste 31 Noroeste 0 -- -- 42
2020-03-25 12:00:00 8.2 14 Noroeste 27 Noroeste 0 -- -- 66
2020-03-25 11:00:00 5.9 6 Noroeste 18 Noroeste 0 -- -- 77
2020-03-25 10:00:00 5.2 9 Noroeste 16 Noroeste 0 -- -- 81
2020-03-25 09:00:00 5.1 8 Noroeste 17 Noroeste 0 -- -- 79
2020-03-25 08:00:00 5.3 6 Noroeste 13 Noroeste 0 -- -- 75
2020-03-25 07:00:00 5.5 6 Noroeste 13 Noroeste 0 -- -- 75
2020-03-25 06:00:00 5.1 0 Calma 6 Noroeste 0 -- -- 74
2020-03-25 05:00:00 4.9 0 Calma 6 Sudoeste 0 -- -- 73
2020-03-25 04:00:00 4.8 4 Sudoeste 12 Sur 0 -- -- 73
2020-03-25 03:00:00 3.7 9 Sur 12 Sur 0 -- -- 72
2020-03-25 02:00:00 4.1 8 Sur 10 Sur 0 -- -- 71
2020-03-25 01:00:00 4.9 6 Sudoeste 16 Sur 0 -- -- 69
2020-03-25 00:00:00 6.5 13 Sur 19 Sur 0 -- -- 65
2020-03-24 23:00:00 6.3 10 Sur 14 Sur 0 -- -- 68
2020-03-24 22:00:00 6.8 10 Sur 23 Sur 0 -- -- 69
2020-03-24 21:00:00 6.1 17 Sur 27 Sur 0 -- -- 77
2020-03-24 20:00:00 6.9 0 Calma 9 Noroeste 0 -- -- 80
2020-03-24 19:00:00 7.6 3 Noroeste 15 Noroeste 0 -- -- 77
2020-03-24 18:00:00 8 5 Norte 22 Noroeste 0 -- -- 73
2020-03-24 17:00:00 9.5 10 Noroeste 22 Noroeste 0 -- -- 56
2020-03-24 16:00:00 10.6 6 Noroeste 18 Noroeste 0 -- -- 49
2020-03-24 15:00:00 10.9 7 Noroeste 29 Sudoeste 0 -- -- 45
2020-03-24 14:00:00 10.5 12 Sur 36 Sudoeste 0 -- -- 43
2020-03-24 13:00:00 9.5 12 Sur 26 Sudeste 0 -- -- 51
2020-03-24 12:00:00 7.9 9 Sur 27 Sur 0 -- -- 57
2020-03-24 11:00:00 6.8 12 Sudeste 33 Sudeste 0 -- -- 63
2020-03-24 10:00:00 5.2 12 Sudeste 28 Sudeste 0 -- -- 71
2020-03-24 09:00:00 4.4 10 Sur 31 Sur 0 -- -- 75
2020-03-24 08:00:00 4 9 Sur 28 Sudeste 0 -- -- 77
2020-03-24 07:00:00 4.2 14 Sudeste 37 Sudeste 0 -- -- 76
2020-03-24 06:00:00 4.1 18 Sur 38 Sur 0 -- -- 76
2020-03-24 05:00:00 4.2 16 Sur 30 Sudeste 0 -- -- 75
2020-03-24 04:00:00 4.5 13 Sudeste 27 Sudeste 0 -- -- 74
2020-03-24 03:00:00 4.7 12 Sudeste 35 Este 0 -- -- 74
2020-03-24 02:00:00 4.9 11 Sudeste 27 Sur 0 -- -- 73
2020-03-24 01:00:00 5.2 10 Sudeste 36 Sudeste 0 -- -- 73
2020-03-24 00:00:00 5.2 12 Sudeste 35 Este 0 -- -- 75
2020-03-23 23:00:00 5.1 8 Sudeste 20 Sudeste 0 -- -- 82
2020-03-23 22:00:00 4.1 0 Calma 5 Noroeste 0 -- -- 90
2020-03-23 21:00:00 4.2 0 Calma 4 Norte 0 -- -- 89
2020-03-23 20:00:00 4.4 3 Norte 8 Noroeste 0 -- -- 90
2020-03-23 19:00:00 4.4 2 Noroeste 9 Noroeste 0 -- -- 89
2020-03-23 18:00:00 4.7 5 Noroeste 12 Noroeste 0 -- -- 89
2020-03-23 17:00:00 5.5 5 Noroeste 10 Noroeste 0 -- -- 84
2020-03-23 16:00:00 6 6 Noroeste 14 Noroeste 0 -- -- 78
2020-03-23 15:00:00 7.4 7 Noroeste 14 Oeste 0 -- -- 69
2020-03-23 14:00:00 8.3 5 Noroeste 14 Noroeste 0 -- -- 62
2020-03-23 13:00:00 8.5 2 Norte 15 Noroeste 0 -- -- 58
2020-03-23 12:00:00 6.5 7 Noroeste 16 Sudeste 0 -- -- 62
2020-03-23 11:00:00 6.8 6 Sudeste 18 Sudeste 0 -- -- 57
2020-03-23 10:00:00 3.3 3 Este 14 Sur 0 -- -- 73
2020-03-23 09:00:00 4.4 10 Sur 18 Sur 0 -- -- 60
2020-03-23 08:00:00 0.5 4 Noroeste 10 Noroeste 0 -- -- 74
2020-03-23 07:00:00 0.7 3 Oeste 12 Sudoeste 0 -- -- 72
2020-03-23 06:00:00 0 5 Sudoeste 10 Sudoeste 0 -- -- 75
2020-03-23 05:00:00 0.3 5 Sur 11 Sur 0 -- -- 73
2020-03-23 04:00:00 1.1 5 Sur 12 Sur 0 -- -- 81
2020-03-23 03:00:00 1.3 6 Sur 8 Sur 0 -- -- 89
2020-03-23 02:00:00 2.7 2 Noroeste 7 Noroeste 0 -- -- 90
2020-03-23 01:00:00 2.8 4 Nordeste 10 Noroeste 0 -- -- 91
2020-03-23 00:00:00 3.2 4 Noroeste 10 Noroeste 0 -- -- 91
2020-03-22 23:00:00 3.4 3 Noroeste 10 Noroeste 0 -- -- 91
2020-03-22 22:00:00 3.6 5 Noroeste 12 Noroeste 0 -- -- 91
2020-03-22 21:00:00 3.8 5 Noroeste 15 Noroeste 0 -- -- 91
2020-03-22 20:00:00 4.1 7 Noroeste 19 Noroeste 0 -- -- 91
2020-03-22 19:00:00 4.4 7 Noroeste 28 Noroeste 0 -- -- 89
2020-03-22 18:00:00 4.6 12 Noroeste 28 Noroeste 0 -- -- 87
2020-03-22 17:00:00 5.4 11 Noroeste 26 Noroeste 0 -- -- 83
2020-03-22 16:00:00 6.1 10 Noroeste 23 Oeste 0 -- -- 82
2020-03-22 15:00:00 6.1 9 Noroeste 19 Noroeste 0 -- -- 81
2020-03-22 14:00:00 6.2 6 Noroeste 17 Noroeste 0 -- -- 82
2020-03-22 13:00:00 6 6 Noroeste 15 Noroeste 0 -- -- 84
2020-03-22 12:00:00 5.6 6 Noroeste 12 Noroeste 0 -- -- 85
2020-03-22 11:00:00 6 6 Noroeste 15 Oeste 0 -- -- 89
2020-03-22 10:00:00 5.2 6 Noroeste 13 Noroeste 0 -- -- 90
2020-03-22 09:00:00 3.7 5 Noroeste 10 Noroeste 0 -- -- 90
2020-03-22 08:00:00 3.3 3 Noroeste 9 Noroeste 0 -- -- 89
2020-03-22 07:00:00 3.7 4 Norte 7 Norte 0 -- -- 89
2020-03-22 06:00:00 3.9 0 Calma 4 Oeste 0 -- -- 88
2020-03-22 05:00:00 3.4 3 Oeste 9 Sur 0 -- -- 86
2020-03-22 04:00:00 3.7 6 Sudoeste 12 Sur 0 -- -- 84
2020-03-22 03:00:00 4.1 9 Sur 13 Sur 0 -- -- 85
2020-03-22 02:00:00 3.9 4 Sur 11 Sudoeste 0 -- -- 85
2020-03-22 01:00:00 3.7 8 Sudoeste 11 Sur 0 -- -- 85
2020-03-22 00:00:00 4 4 Sudoeste 9 Sudoeste 0 -- -- 85
2020-03-21 23:00:00 5.1 0 Calma 7 Sudoeste 0 -- -- 86
2020-03-21 22:00:00 5.2 0 Calma 8 Sudeste 0 -- -- 86
2020-03-21 21:00:00 4 3 Sudoeste 7 Sudoeste 0 -- -- 83
2020-03-21 20:00:00 5.6 2 Sudoeste 5 Oeste 0.1 -- -- 80
2020-03-21 19:00:00 5.6 3 Noroeste 8 Oeste 0 -- -- 72
2020-03-21 18:00:00 6.9 3 Sur 13 Oeste 0 -- -- 63
2020-03-21 17:00:00 6.3 10 Oeste 21 Nordeste 0 -- -- 65
2020-03-21 16:00:00 10.3 4 Sur 27 Sur 0 -- -- 53
2020-03-21 15:00:00 9.9 12 Sur 29 Sur 0 -- -- 57
2020-03-21 14:00:00 8.7 17 Sur 25 Sur 0 -- -- 60
2020-03-21 13:00:00 8.4 17 Sur 27 Sur 0 -- -- 62
2020-03-21 12:00:00 7.4 14 Sur 31 Sur 0 -- -- 71
2020-03-21 11:00:00 5.9 20 Sur 36 Sur 0 -- -- 76
2020-03-21 10:00:00 4.4 19 Sur 32 Sur 0 -- -- 83
2020-03-21 09:00:00 3.9 12 Sur 43 Sudeste 0 -- -- 86
2020-03-21 08:00:00 3.6 18 Sudeste 34 Sudeste 0 -- -- 87
2020-03-21 07:00:00 3.8 12 Sur 35 Sur 0 -- -- 87
2020-03-21 06:00:00 4.1 17 Sur 37 Este 0 -- -- 85
2020-03-21 05:00:00 4.8 14 Sudeste 35 Sudeste 0 -- -- 85
2020-03-21 04:00:00 5.3 14 Sur 31 Sur 0 -- -- 83
2020-03-21 03:00:00 5.5 9 Sudeste 26 Sur 0 -- -- 84
2020-03-21 02:00:00 5.6 11 Sudeste 44 Sudeste 0 -- -- 85
2020-03-21 01:00:00 5.8 13 Sudeste 38 Este 0 -- -- 84
2020-03-21 00:00:00 5.9 12 Sudeste 34 Sudoeste 0.1 -- -- 82
2020-03-20 23:00:00 5.8 18 Sur 37 Sur 0 -- -- 82
2020-03-20 22:00:00 5.1 14 Sur 27 Sur 3.9 -- -- 80
2020-03-20 21:00:00 5.6 14 Sur 26 Sur 1 -- -- 81
2020-03-20 20:00:00 5.9 13 Sur 23 Sur 0 -- -- 77
2020-03-20 19:00:00 6.1 12 Sur 24 Sudeste 0 -- -- 77
2020-03-20 18:00:00 6.3 10 Sudeste 28 Sur 0.2 -- -- 73
2020-03-20 17:00:00 6.7 12 Sur 27 Sur 0 -- -- 72
2020-03-20 16:00:00 6.6 13 Sudeste 28 Sur 0 -- -- 73
2020-03-20 15:00:00 6.7 11 Sudeste 30 Sur 0 -- -- 73
2020-03-20 14:00:00 6.1 9 Sur 35 Sur 0 -- -- 79
2020-03-20 13:00:00 5 15 Sur 38 Sudeste 0 -- -- 82
2020-03-20 12:00:00 5.1 17 Sudeste 35 Sudeste 0 -- -- 85
2020-03-20 11:00:00 4.4 17 Sudeste 42 Sur 0 -- -- 86
2020-03-20 10:00:00 4.9 15 Sudeste 35 Sudeste 0 -- -- 83
2020-03-20 09:00:00 4.5 21 Sudeste 33 Sudeste 0 -- -- 83
2020-03-20 08:00:00 4.1 15 Sur 28 Sudeste 0 -- -- 81
2020-03-20 07:00:00 4.2 15 Sudeste 33 Sudeste 0 -- -- 77
2020-03-20 06:00:00 4.4 17 Sudeste 35 Sur 0 -- -- 75
2020-03-20 05:00:00 4.6 23 Sur -- -- -- -- -- 70
2020-03-20 04:00:00 5.1 23 Sur 44 Sur 0 -- -- 66
2020-03-20 03:00:00 5.8 25 Sur 42 Sur 0 -- -- 65
2020-03-20 02:00:00 6.1 15 Sur 37 Sur 0 -- -- 56
2020-03-20 01:00:00 6.5 24 Sur 40 Sur 0 -- -- 47
2020-03-20 00:00:00 6.3 17 Sur 32 Sur 0 -- -- 47
2020-03-19 23:00:00 6.8 14 Sur 28 Sudeste 0 -- -- 48
2020-03-19 22:00:00 7.1 13 Sur 24 Sur 0 -- -- 49
2020-03-19 21:00:00 7.7 17 Sur 26 Sur 0 -- -- 48
2020-03-19 20:00:00 7.4 12 Sur 17 Sur 0 -- -- 57
2020-03-19 19:00:00 6.6 4 Sur 8 Sur 0 -- -- 73
2020-03-19 18:00:00 8.7 0 Calma 8 Oeste 0 -- -- 68
2020-03-19 17:00:00 9.2 0 Calma 14 Oeste 0.1 -- -- 65
2020-03-19 16:00:00 9.8 6 Sudoeste 19 Sudeste 1.8 -- -- 65
2020-03-19 15:00:00 11.9 8 Sur 20 Sur 0 -- -- 47
2020-03-19 14:00:00 12.9 9 Sur 19 Sur 0 -- -- 49
2020-03-19 13:00:00 11.7 13 Sur 27 Sur 0 -- -- 53
2020-03-19 12:00:00 10.7 15 Sur 31 Sur 0 -- -- 57
2020-03-19 11:00:00 9 23 Sur 30 Sur 0 -- -- 62
2020-03-19 10:00:00 7.9 23 Sur 36 Sur 0 -- -- 66
2020-03-19 09:00:00 6.8 28 Sur 35 Sur 0 -- -- 68
2020-03-19 08:00:00 6.1 26 Sur 33 Sur 0 -- -- 70
2020-03-19 07:00:00 6.1 24 Sur 33 Sur 0 -- -- 70
2020-03-19 06:00:00 6.9 26 Sur 32 Sur 0 -- -- 69
2020-03-19 05:00:00 7 24 Sur 31 Sur 0 -- -- 71
2020-03-19 04:00:00 7.1 24 Sur 32 Sur 0 -- -- 67
2020-03-19 03:00:00 7.9 25 Sur 37 Sur 0 -- -- 62
2020-03-19 02:00:00 8.4 23 Sur 35 Sur 0 -- -- 55
2020-03-19 01:00:00 8.3 20 Sur 28 Sur 0 -- -- 54
2020-03-19 00:00:00 8.3 17 Sur 28 Sur 0 -- -- 54
2020-03-18 23:00:00 8.5 18 Sur 24 Sur 0 -- -- 55
2020-03-18 22:00:00 8.7 17 Sur 27 Sur 0 -- -- 52
2020-03-18 21:00:00 9 16 Sur 24 Sur 0 -- -- 59
2020-03-18 20:00:00 7.5 11 Sur 14 Sur 0 -- -- 68
2020-03-18 19:00:00 7.5 5 Sudoeste 8 Sudoeste 0 -- -- 72
2020-03-18 18:00:00 10 2 Sur 11 Nordeste 0 -- -- 61
2020-03-18 17:00:00 12.2 4 Noroeste 11 Noroeste 0 -- -- 50
2020-03-18 16:00:00 13.3 4 Norte 19 Sudoeste 0 -- -- 43
2020-03-18 15:00:00 14 2 Oeste 15 Sur 0 -- -- 42
2020-03-18 14:00:00 12.9 7 Sur 16 Sur 0 -- -- 45
2020-03-18 13:00:00 12 5 Sudeste 18 Sur 0 -- -- 50
2020-03-18 12:00:00 9.3 13 Sur 26 Sur 0 -- -- 55
2020-03-18 11:00:00 8.7 14 Sur 24 Sur 0 -- -- 50
2020-03-18 10:00:00 7.9 11 Sur 17 Sur 0 -- -- 53
2020-03-18 09:00:00 6.4 12 Sur 14 Sur 0 -- -- 58
2020-03-18 08:00:00 5.1 9 Sur 29 Sur 0 -- -- 65
2020-03-18 07:00:00 3.3 20 Sur 30 Sur 0 -- -- 84
2020-03-18 06:00:00 3.7 21 Sur 28 Sur 0 -- -- 82
2020-03-18 05:00:00 4.1 18 Sur 28 Sur 0 -- -- 80
2020-03-18 04:00:00 4.6 17 Sur 26 Sur 0 -- -- 79
2020-03-18 03:00:00 5.2 19 Sur 61 Sur 0 -- -- 77
2020-03-18 02:00:00 5.5 25 Sur 37 Sur 0 -- -- 77
2020-03-18 01:00:00 5.5 26 Sur 44 Sur 0 -- -- 77
2020-03-18 00:00:00 5.6 29 Sur 43 Sur 0 -- -- 78
2020-03-17 23:00:00 5.6 29 Sur 48 Sur 0 -- -- 77
2020-03-17 22:00:00 5.3 25 Sur 43 Sur 0 -- -- 77
2020-03-17 21:00:00 5.6 22 Sur 35 Sur 0 -- -- 75
2020-03-17 20:00:00 5.9 16 Sur 31 Sur 0 -- -- 74
2020-03-17 19:00:00 6 15 Sur 30 Sur 0 -- -- 77
2020-03-17 18:00:00 5.9 9 Sudeste 25 Sudeste 0 -- -- 87
2020-03-17 17:00:00 4.9 0 Calma 12 Noroeste 0 -- -- 86
2020-03-17 16:00:00 4.7 5 Noroeste 11 Noroeste 0 -- -- 85
2020-03-17 15:00:00 5.8 3 Este 19 Sudeste 0 -- -- 86
2020-03-17 14:00:00 4.8 2 Este 17 Sur 0 -- -- 85
2020-03-17 13:00:00 5.9 0 Calma 18 Este 0 -- -- 86
2020-03-17 12:00:00 5.3 4 Sudeste 17 Sur 0 -- -- 87
2020-03-17 11:00:00 4.6 7 Sur 14 Sur 0 -- -- 88
2020-03-17 10:00:00 3.5 10 Sudeste 23 Sudeste 0 -- -- 90
2020-03-17 09:00:00 -0.1 0 Calma 2 Sudeste 0.1 -- -- 90
2020-03-17 08:00:00 -1.4 0 Calma 0 Calma 0 -- -- 90
2020-03-17 07:00:00 -1.7 0 Calma 0 Calma 0 -- -- 90
2020-03-17 06:00:00 -1.8 0 Calma 0 Calma 0 -- -- 90
2020-03-17 05:00:00 -1.5 0 Calma 0 Calma 0 -- -- 90
2020-03-17 04:00:00 -1.3 0 Calma 0 Calma 0.1 -- -- 90
2020-03-17 03:00:00 -1.3 0 Calma 3 Noroeste 0.1 -- -- 90
2020-03-17 02:00:00 -1.4 0 Calma 3 Noroeste 0.2 -- -- 90
2020-03-17 01:00:00 -1.6 2 Oeste 4 Oeste 0.2 -- -- 90
2020-03-17 00:00:00 -1.7 2 Oeste 5 Noroeste 0 -- -- 90
2020-03-16 23:00:00 -1.6 3 Noroeste 7 Noroeste 0.1 -- -- 90
2020-03-16 22:00:00 -1.5 4 Noroeste 6 Noroeste 0.5 -- -- 90
2020-03-16 21:00:00 -1.6 4 Noroeste 6 Noroeste 0.3 -- -- 90
2020-03-16 20:00:00 -1.5 4 Noroeste 6 Noroeste 0.8 -- -- 90
2020-03-16 19:00:00 -1.8 3 Noroeste 6 Oeste 0.1 -- -- 90
2020-03-16 18:00:00 -1.7 4 Noroeste 7 Noroeste 0 -- -- 90
2020-03-16 17:00:00 -1.2 4 Noroeste 10 Noroeste 1.4 -- -- 90
2020-03-16 16:00:00 -1.2 6 Noroeste 10 Noroeste 0.8 -- -- 90
2020-03-16 15:00:00 -1.3 6 Noroeste 12 Noroeste 1.9 -- -- 90
2020-03-16 14:00:00 -1.3 7 Noroeste 12 Noroeste 2.7 -- -- 90
2020-03-16 13:00:00 -1.3 8 Noroeste 13 Noroeste 1.8 -- -- 90
2020-03-16 12:00:00 -1.9 8 Noroeste 14 Oeste 1.7 -- -- 90
2020-03-16 11:00:00 -2.2 7 Noroeste 13 Noroeste 1.2 -- -- 90
2020-03-16 10:00:00 -2.4 9 Noroeste 19 Noroeste 1.1 -- -- 90
2020-03-16 09:00:00 -2.8 10 Noroeste 17 Noroeste 1.8 -- -- 90
2020-03-16 08:00:00 -3 10 Noroeste 22 Noroeste 2.6 -- -- 90
2020-03-16 07:00:00 -2.7 11 Noroeste 21 Noroeste 1.2 -- -- 90
2020-03-16 06:00:00 -3.1 12 Noroeste 29 Noroeste 1.4 -- -- 90
2020-03-16 05:00:00 -2.8 14 Noroeste 33 Noroeste 1.4 -- -- 90
2020-03-16 04:00:00 -2.8 14 Noroeste 26 Noroeste 2.2 -- -- 90
2020-03-16 03:00:00 -3.2 11 Noroeste 27 Noroeste 2.3 -- -- 90
2020-03-16 02:00:00 -3.3 12 Noroeste 26 Noroeste 2.8 -- -- 90
2020-03-16 01:00:00 -3.4 12 Noroeste 26 Noroeste 3 -- -- 90
2020-03-16 00:00:00 -3.5 12 Noroeste 24 Oeste 2.7 -- -- 89
2020-03-15 23:00:00 -3.3 12 Noroeste 24 Noroeste 1.9 -- -- 89
2020-03-15 22:00:00 -3.2 15 Noroeste 37 Noroeste 2.5 -- -- 90
2020-03-15 21:00:00 -2.8 13 Noroeste 33 Noroeste 2.2 -- -- 90
2020-03-15 20:00:00 -2.6 13 Noroeste 32 Noroeste 0.7 -- -- 90
2020-03-15 19:00:00 -2.1 18 Noroeste 34 Noroeste 1.6 -- -- 90
2020-03-15 18:00:00 -0.4 13 Noroeste 32 Oeste 1.8 -- -- 90
2020-03-15 17:00:00 1.3 10 Noroeste 18 Noroeste 0.3 -- -- 89
2020-03-15 16:00:00 3.3 8 Noroeste 22 Oeste 0 -- -- 85
2020-03-15 15:00:00 6.1 6 Noroeste 22 Oeste 0 -- -- 70
2020-03-15 14:00:00 10.3 8 Sudoeste 33 Sur 0 -- -- 36
2020-03-15 13:00:00 10.3 15 Sur 33 Sur 0 -- -- 29
2020-03-15 12:00:00 10 12 Sudeste 35 Este 0 -- -- 35
2020-03-15 11:00:00 8.5 17 Sudeste 37 Sudeste 0 -- -- 39
2020-03-15 10:00:00 7.5 10 Sudeste 26 Sur 0 -- -- 46
2020-03-15 09:00:00 5.7 15 Sur 38 Sur 0 -- -- 50
2020-03-15 08:00:00 4 27 Sur 35 Sur 0 -- -- 52
2020-03-15 07:00:00 3.7 23 Sur 93 Sur 0 -- -- 52
2020-03-15 06:00:00 4.7 23 Sur 39 Sur 0 -- -- 48
2020-03-15 05:00:00 5 25 Sur 42 Sur 0 -- -- 46
2020-03-15 04:00:00 6 27 Sur 40 Sur 0 -- -- 44
2020-03-15 03:00:00 5.7 26 Sur 44 Sur 0 -- -- 47
2020-03-15 02:00:00 6.2 24 Sur 38 Sur 0 -- -- 46
2020-03-15 01:00:00 6.6 25 Sur 34 Sur 0 -- -- 45
2020-03-15 00:00:00 6.5 24 Sur 34 Sur 0 -- -- 47
2020-03-14 23:00:00 7.3 22 Sur 33 Sur 0 -- -- 46
2020-03-14 22:00:00 7.1 19 Sur 28 Sur 0 -- -- 47
2020-03-14 21:00:00 7.2 18 Sur 24 Sur 0 -- -- 48
2020-03-14 20:00:00 7.5 11 Sur 16 Sur 0 -- -- 52
2020-03-14 19:00:00 5 3 Sudoeste 9 Sur 0 -- -- 68
2020-03-14 18:00:00 7.9 0 Calma 8 Norte 0 -- -- 53
2020-03-14 17:00:00 10.1 4 Noroeste 12 Noroeste 0 -- -- 45
2020-03-14 16:00:00 10.2 5 Noroeste 12 Noroeste 0 -- -- 39
2020-03-14 15:00:00 10.2 4 Noroeste 12 Noroeste 0 -- -- 33
2020-03-14 14:00:00 9.8 5 Oeste 12 Noroeste 0 -- -- 31
2020-03-14 13:00:00 8.8 6 Noroeste 9 Noroeste 0 -- -- 24
2020-03-14 12:00:00 8.8 4 Noroeste 9 Noroeste 0 -- -- 21
2020-03-14 11:00:00 8.4 3 Noroeste 10 Oeste 0 -- -- 22
2020-03-14 10:00:00 8.4 3 Nordeste 6 Nordeste 0 -- -- 30
2020-03-14 09:00:00 3.7 3 Sudoeste 14 Sudoeste 0 -- -- 41
2020-03-14 08:00:00 1.6 10 Sur 14 Sudoeste 0 -- -- 44
2020-03-14 07:00:00 1.4 3 Sudoeste 8 Sur 0 -- -- 43
2020-03-14 06:00:00 0.9 6 Sur 10 Sudoeste 0 -- -- 44
2020-03-14 05:00:00 1 4 Sudoeste 12 Sudoeste 0 -- -- 43
2020-03-14 04:00:00 0.8 5 Sudoeste 7 Sur 0 -- -- 39
2020-03-14 03:00:00 1.2 4 Sudoeste 7 Sudoeste 0 -- -- 40
2020-03-14 02:00:00 1.7 2 Sudoeste 8 Oeste 0 -- -- 40
2020-03-14 01:00:00 1.3 3 Sudoeste 8 Oeste 0 -- -- 46
2020-03-14 00:00:00 2.7 5 Noroeste 13 Sudoeste 0 -- -- 47
2020-03-13 23:00:00 1.3 7 Sur 12 Sur 0 -- -- 68
2020-03-13 22:00:00 1.3 0 Calma 15 Sudoeste 0 -- -- 67
2020-03-13 21:00:00 2 10 Sur 13 Sudoeste 0.1 -- -- 65
2020-03-13 20:00:00 2.2 2 Sur 14 Noroeste 0 -- -- 77
2020-03-13 19:00:00 2.3 11 Sudoeste 15 Sudoeste 0 -- -- 81
2020-03-13 18:00:00 2.7 2 Nordeste 13 Norte 0 -- -- 90
2020-03-13 17:00:00 3.1 8 Noroeste 18 Noroeste 0 -- -- 90
2020-03-13 16:00:00 3.1 2 Nordeste 13 Noroeste 0 -- -- 90
2020-03-13 15:00:00 2.8 5 Noroeste 16 Noroeste 0 -- -- 90
2020-03-13 14:00:00 2.3 5 Norte 13 Norte 0 -- -- 90
2020-03-13 13:00:00 2.3 5 Noroeste 12 Noroeste 0 -- -- 90
2020-03-13 12:00:00 1.8 5 Noroeste 11 Noroeste 0 -- -- 90
2020-03-13 11:00:00 1.8 4 Norte 10 Noroeste 0 -- -- 90
2020-03-13 10:00:00 1.4 5 Noroeste 10 Noroeste 0 -- -- 90
2020-03-13 09:00:00 0.8 4 Norte 9 Noroeste 0 -- -- 90
2020-03-13 08:00:00 0.8 3 Noroeste 9 Noroeste 0.1 -- -- 90
2020-03-13 07:00:00 0.7 4 Noroeste 9 Noroeste 0.4 -- -- 90
2020-03-13 06:00:00 0.8 4 Noroeste 11 Noroeste 0.6 -- -- 90
2020-03-13 05:00:00 0.8 6 Noroeste 15 Noroeste 0.7 -- -- 90
2020-03-13 04:00:00 1 6 Noroeste 15 Oeste 0.6 -- -- 90
2020-03-13 03:00:00 1.1 8 Noroeste 38 Noroeste 0.9 -- -- 90
2020-03-13 02:00:00 1.4 6 Noroeste 12 Noroeste 0.6 -- -- 90
2020-03-13 01:00:00 1.5 6 Noroeste 12 Noroeste 0.5 -- -- 90
2020-03-13 00:00:00 1.7 6 Noroeste 12 Noroeste 0.5 -- -- 90
2020-03-12 23:00:00 1.9 7 Noroeste 16 Noroeste 0.3 -- -- 90
2020-03-12 22:00:00 2.4 8 Noroeste 18 Noroeste 0.7 -- -- 90
2020-03-12 21:00:00 2.7 7 Noroeste 18 Noroeste 0.3 -- -- 90
2020-03-12 20:00:00 2.7 8 Noroeste 20 Noroeste 0.8 -- -- 90
2020-03-12 19:00:00 3 8 Noroeste 15 Noroeste 1 -- -- 90
2020-03-12 18:00:00 3.2 8 Noroeste 17 Noroeste 0.4 -- -- 90
2020-03-12 17:00:00 3.4 6 Noroeste 14 Oeste 0.5 -- -- 90
2020-03-12 16:00:00 3.8 9 Noroeste 16 Noroeste 0.4 -- -- 90
2020-03-12 15:00:00 4.8 8 Noroeste 16 Noroeste 0.1 -- -- 90
2020-03-12 14:00:00 5.2 6 Noroeste 10 Noroeste 0.1 -- -- 90
2020-03-12 13:00:00 5.2 5 Noroeste 13 Noroeste 0 -- -- 90
2020-03-12 12:00:00 5.2 5 Noroeste 11 Noroeste 0 -- -- 89
2020-03-12 11:00:00 4.9 3 Noroeste 8 Noroeste 0 -- -- 89
2020-03-12 10:00:00 4.6 3 Oeste 8 Noroeste 0 -- -- 90
2020-03-12 09:00:00 4.4 4 Sur 10 Sur 0 -- -- 90
2020-03-12 08:00:00 3.5 6 Sur 11 Sudoeste 0 -- -- 89
2020-03-12 07:00:00 3.3 5 Sur 7 Sur 0 -- -- 88
2020-03-12 06:00:00 3.4 4 Noroeste 12 Noroeste 0 -- -- 86
2020-03-12 05:00:00 3.8 3 Sur 10 Sudoeste 0 -- -- 77
2020-03-12 04:00:00 7.8 3 Oeste 13 Sur 0 -- -- 55
2020-03-12 03:00:00 8.3 9 Sur 16 Sur 0 -- -- 52
2020-03-12 02:00:00 9.5 12 Sur 18 Sur 0 -- -- 51
2020-03-12 01:00:00 10.3 12 Sur 25 Sur 0 -- -- 50
2020-03-12 00:00:00 10.6 12 Sur 19 Sur 0 -- -- 49
2020-03-11 23:00:00 11 10 Sur 24 Sur 0 -- -- 49
2020-03-11 22:00:00 11.6 13 Sur 23 Sur 0 -- -- 48
2020-03-11 21:00:00 9.8 9 Sur 14 Sudeste 0 -- -- 51
2020-03-11 20:00:00 12.7 8 Sur 23 Sudoeste 0 -- -- 42
2020-03-11 19:00:00 13.9 11 Sudoeste 24 Sur 0 -- -- 40
2020-03-11 18:00:00 11.8 3 Noroeste 12 Noroeste 0 -- -- 52
2020-03-11 17:00:00 14.5 3 Norte 37 Sudoeste 0 -- -- 44
2020-03-11 16:00:00 17.4 9 Sudoeste 28 Sudoeste 0 -- -- 32
2020-03-11 15:00:00 16.3 13 Sur 36 Sur 0 -- -- 34
2020-03-11 14:00:00 15.5 15 Sur 28 Sur 0 -- -- 35
2020-03-11 13:00:00 14.5 18 Sur 32 Sur 0 -- -- 34
2020-03-11 12:00:00 13.5 17 Sur 30 Sur 0 -- -- 35
2020-03-11 11:00:00 12.9 19 Sur 29 Sur 0 -- -- 38
2020-03-11 10:00:00 12 16 Sur 23 Sur 0 -- -- 39
2020-03-11 09:00:00 10.6 17 Sur 24 Sur 0 -- -- 41
2020-03-11 08:00:00 8.5 4 Sudoeste 18 Sudoeste 0 -- -- 45
2020-03-11 07:00:00 9.1 14 Sur 22 Sur 0 -- -- 39
2020-03-11 06:00:00 7.3 11 Sudoeste 16 Sudoeste 0 -- -- 48
2020-03-11 05:00:00 6.4 12 Sudoeste 15 Sudoeste 0 -- -- 47
2020-03-11 04:00:00 6.5 10 Sudoeste 13 Sur 0 -- -- 43
2020-03-11 03:00:00 7.2 9 Sudoeste 15 Sudoeste 0 -- -- 38
2020-03-11 02:00:00 7.8 13 Sudoeste 16 Sudoeste 0 -- -- 35
2020-03-11 01:00:00 6.4 9 Sudoeste 15 Sudoeste 0 -- -- 39
2020-03-11 00:00:00 7.3 5 Oeste 15 Sudoeste 0 -- -- 39
2020-03-10 23:00:00 6.4 11 Sudoeste 15 Sudoeste 0 -- -- 52
2020-03-10 22:00:00 7.6 3 Sudoeste 16 Sudoeste 0 -- -- 36
2020-03-10 21:00:00 9.2 12 Sudoeste 19 Sudoeste 0 -- -- 35
2020-03-10 20:00:00 10 10 Sudoeste 18 Sudoeste 0 -- -- 35
2020-03-10 19:00:00 9.6 7 Sur 13 Sudoeste 0 -- -- 44
2020-03-10 18:00:00 11.4 3 Oeste 10 Oeste 0 -- -- 46
2020-03-10 17:00:00 13.7 5 Noroeste 11 Noroeste 0 -- -- 42
2020-03-10 16:00:00 14.8 7 Noroeste 22 Sudoeste 0 -- -- 32
2020-03-10 15:00:00 16.6 7 Sur 19 Sur 0 -- -- 23
2020-03-10 14:00:00 15.1 8 Sur 24 Sudoeste 0 -- -- 23
2020-03-10 13:00:00 15.4 10 Sudoeste 21 Sudoeste 0 -- -- 22
2020-03-10 12:00:00 14.6 5 Noroeste 17 Noroeste 0 -- -- 34
2020-03-10 11:00:00 14 3 Nordeste 10 Nordeste 0 -- -- 41
2020-03-10 10:00:00 12.8 3 Norte 18 Sur 0 -- -- 39
2020-03-10 09:00:00 11.6 13 Sur 28 Sur 0 -- -- 43
2020-03-10 08:00:00 10.3 11 Sudoeste 26 Sur 0 -- -- 46
2020-03-10 07:00:00 8.7 9 Sur 19 Sur 0 -- -- 52
2020-03-10 06:00:00 8.9 14 Sur 21 Sur 0 -- -- 52
2020-03-10 05:00:00 6.1 11 Sur 15 Sudoeste 0 -- -- 58
2020-03-10 04:00:00 6.1 5 Sudoeste 12 Sur 0 -- -- 57
2020-03-10 03:00:00 5.4 5 Sur 8 Sur 0 -- -- 53
2020-03-10 02:00:00 5.1 4 Sudoeste 9 Sudoeste 0 -- -- 52
2020-03-10 01:00:00 4.7 6 Sudoeste 14 Sudoeste 0 -- -- 47
2020-03-10 00:00:00 5.7 12 Sudoeste 15 Sudoeste 0 -- -- 45